Time;durP1;ratioP1;P1;durP2;ratioP2;P2;SDS_P1;SDS_P2;PMS_P1;PMS_P2;Temp;Humidity;BMP_temperature;BMP_pressure;BME280_temperature;BME280_humidity;BME280_pressure;Samples;Min_cycle;Max_cycle;Signal;HPM_P1;HPM_P2
2021/06/21 03:02:48;;;;;;;12.30;11.10;;;25.10;71.80;;;;;;4971752;28;20113;-53
2021/06/21 03:05:16;;;;;;;11.60;10.50;;;25.10;71.30;;;;;;4965199;28;20054;-55
2021/06/21 03:07:42;;;;;;;12.35;11.07;;;25.10;71.30;;;;;;4965063;28;20730;-55
2021/06/21 03:10:09;;;;;;;14.27;11.77;;;25.10;71.20;;;;;;4965021;28;20398;-54
2021/06/21 03:12:36;;;;;;;12.27;11.00;;;25.10;71.10;;;;;;4964991;28;20043;-53
2021/06/21 03:15:03;;;;;;;12.40;10.85;;;25.10;70.70;;;;;;4960813;28;20027;-55
2021/06/21 03:17:33;;;;;;;14.40;11.60;;;25.10;70.70;;;;;;4957580;28;20023;-54
2021/06/21 03:19:59;;;;;;;12.70;11.45;;;25.10;70.70;;;;;;4964753;28;20022;-58
2021/06/21 03:22:26;;;;;;;12.98;11.57;;;25.10;70.50;;;;;;4965027;28;20409;-54
2021/06/21 03:24:53;;;;;;;12.63;11.32;;;25.10;70.80;;;;;;4964892;28;20049;-55
2021/06/21 03:27:34;;;;;;;12.48;11.18;;;25.10;71.00;;;;;;4963985;28;20097;-54
2021/06/21 03:30:00;;;;;;;12.60;11.30;;;25.10;71.00;;;;;;4962585;28;20184;-57
2021/06/21 03:32:29;;;;;;;12.30;11.10;;;25.10;71.10;;;;;;4965276;28;20030;-56
2021/06/21 03:34:57;;;;;;;14.57;11.35;;;25.10;71.10;;;;;;4964697;28;20054;-54
2021/06/21 03:37:23;;;;;;;13.95;12.15;;;25.10;70.60;;;;;;4965126;28;20027;-53
2021/06/21 03:39:49;;;;;;;13.02;11.63;;;25.10;69.90;;;;;;4965283;28;20426;-54
2021/06/21 03:42:15;;;;;;;13.02;11.63;;;25.10;70.30;;;;;;4965319;28;20526;-53
2021/06/21 03:44:41;;;;;;;15.55;12.20;;;25.10;70.30;;;;;;4965236;28;20035;-54
2021/06/21 03:47:09;;;;;;;12.18;10.88;;;25.10;70.40;;;;;;4962842;28;20039;-56
2021/06/21 03:49:34;;;;;;;15.48;11.55;;;25.10;70.50;;;;;;4963653;28;20436;-55
2021/06/21 03:52:00;;;;;;;13.25;11.20;;;25.10;70.80;;;;;;4964239;28;20019;-54
2021/06/21 03:54:25;;;;;;;21.02;15.07;;;25.10;70.60;;;;;;4964698;28;20825;-54
2021/06/21 03:56:51;;;;;;;34.15;17.30;;;25.10;70.80;;;;;;4964110;28;20029;-56
2021/06/21 03:59:19;;;;;;;26.35;15.82;;;25.10;70.90;;;;;;4963787;28;20038;-53
2021/06/21 04:01:45;;;;;;;18.17;13.77;;;25.10;71.00;;;;;;4964145;28;20034;-54
2021/06/21 04:04:11;;;;;;;20.80;14.13;;;25.10;70.60;;;;;;4963086;28;20070;-53
2021/06/21 04:06:36;;;;;;;15.48;13.07;;;25.10;70.70;;;;;;4963423;28;20505;-53
2021/06/21 04:09:02;;;;;;;15.27;11.98;;;25.00;70.50;;;;;;4962772;28;20046;-57
2021/06/21 04:11:28;;;;;;;14.77;12.82;;;25.10;70.60;;;;;;4963085;28;20030;-53
2021/06/21 04:13:54;;;;;;;15.23;11.43;;;25.10;70.60;;;;;;4963207;28;20030;-56
2021/06/21 04:16:20;;;;;;;16.95;13.23;;;25.10;70.50;;;;;;4963259;28;20027;-56
2021/06/21 04:18:45;;;;;;;14.77;12.32;;;25.10;70.40;;;;;;4963645;28;20394;-53
2021/06/21 04:21:32;;;;;;;18.95;12.57;;;25.10;69.90;;;;;;5093792;27;20384;-55
2021/06/21 04:23:58;;;;;;;19.73;12.63;;;25.10;70.60;;;;;;5089403;28;20039;-57
2021/06/21 04:26:24;;;;;;;18.95;13.63;;;25.10;70.50;;;;;;5088729;28;20086;-58
2021/06/21 04:28:50;;;;;;;18.40;13.48;;;25.10;70.50;;;;;;5082183;28;20352;-53
2021/06/21 04:32:25;;;;;;;15.15;12.18;;;25.10;70.00;;;;;;5094359;27;20405;-58
2021/06/21 04:34:50;;;;;;;16.60;12.50;;;25.10;70.50;;;;;;5087293;28;20025;-56
2021/06/21 04:37:16;;;;;;;19.75;13.07;;;25.10;70.50;;;;;;5080563;28;20028;-56
2021/06/21 04:39:42;;;;;;;14.18;12.38;;;25.10;70.40;;;;;;5080267;28;20039;-57
2021/06/21 04:42:07;;;;;;;14.65;11.05;;;25.10;70.60;;;;;;5082992;28;20020;-57
2021/06/21 04:44:34;;;;;;;17.27;14.07;;;25.10;70.50;;;;;;5086584;28;20020;-54
2021/06/21 04:46:59;;;;;;;19.23;12.05;;;25.10;70.50;;;;;;5082291;28;20040;-54
2021/06/21 04:49:25;;;;;;;20.00;12.93;;;25.10;70.60;;;;;;5084986;28;20113;-57
2021/06/21 04:51:52;;;;;;;21.08;13.35;;;25.10;70.50;;;;;;5081837;28;20402;-54
2021/06/21 04:54:18;;;;;;;19.50;12.43;;;25.10;70.60;;;;;;5085186;28;20031;-55
2021/06/21 04:56:44;;;;;;;19.17;13.00;;;25.10;70.70;;;;;;5086847;28;20028;-54
2021/06/21 04:59:10;;;;;;;25.05;14.43;;;25.10;70.70;;;;;;5086424;28;20032;-55
2021/06/21 05:01:35;;;;;;;22.58;14.50;;;25.10;70.80;;;;;;5090235;28;20020;-54
2021/06/21 05:04:04;;;;;;;16.45;12.52;;;25.10;70.90;;;;;;5084570;28;20024;-56
2021/06/21 05:06:37;;;;;;;16.80;12.95;;;25.10;70.70;;;;;;5083520;28;20035;-54
2021/06/21 05:09:04;;;;;;;16.77;13.32;;;25.10;70.70;;;;;;5079188;28;20029;-54
2021/06/21 05:11:30;;;;;;;17.42;13.00;;;25.10;70.70;;;;;;5081481;28;20218;-54
2021/06/21 05:13:56;;;;;;;17.13;12.63;;;25.10;70.60;;;;;;5081336;28;20489;-54
2021/06/21 05:16:22;;;;;;;17.95;13.30;;;25.10;70.70;;;;;;5081418;28;20587;-55
2021/06/21 05:18:48;;;;;;;17.67;13.68;;;25.00;70.80;;;;;;5081373;28;20025;-57
2021/06/21 05:21:13;;;;;;;17.17;12.77;;;25.10;70.80;;;;;;5084146;28;20020;-57
2021/06/21 05:23:39;;;;;;;16.75;12.43;;;25.10;70.80;;;;;;5081892;28;20024;-54
2021/06/21 05:26:05;;;;;;;17.10;13.15;;;25.10;70.70;;;;;;5082714;28;20023;-54
2021/06/21 05:28:31;;;;;;;18.58;12.68;;;25.10;70.70;;;;;;5084058;28;20020;-54
2021/06/21 05:30:56;;;;;;;16.95;13.23;;;25.00;70.60;;;;;;5082980;28;20501;-54
2021/06/21 05:33:23;;;;;;;17.42;13.10;;;25.10;70.60;;;;;;5079799;28;20020;-55
2021/06/21 05:36:57;;;;;;;13.87;12.13;;;25.10;70.20;;;;;;5100423;27;1094388;-55
2021/06/21 05:39:23;;;;;;;15.13;12.80;;;25.10;70.70;;;;;;5137211;27;20257;-56
2021/06/21 05:41:48;;;;;;;14.82;11.20;;;25.10;70.70;;;;;;5139935;27;20401;-54
2021/06/21 05:44:14;;;;;;;13.07;11.55;;;25.10;70.70;;;;;;5137305;27;20029;-54
2021/06/21 05:46:40;;;;;;;13.95;12.45;;;25.10;70.80;;;;;;5119490;27;20259;-53
2021/06/21 05:49:06;;;;;;;14.60;12.10;;;25.10;70.90;;;;;;5119450;27;20026;-53
2021/06/21 05:51:32;;;;;;;14.77;12.32;;;25.10;70.80;;;;;;5119505;27;20095;-53
2021/06/21 05:53:58;;;;;;;14.95;12.43;;;25.10;70.80;;;;;;5118846;27;20032;-53
2021/06/21 05:56:23;;;;;;;18.80;12.50;;;25.10;70.80;;;;;;5118984;28;20038;-53
2021/06/21 05:58:49;;;;;;;12.93;11.60;;;25.10;70.80;;;;;;5118912;28;20473;-53
2021/06/21 06:01:15;;;;;;;12.68;11.30;;;25.10;70.90;;;;;;5119117;28;20054;-53
2021/06/21 06:03:40;;;;;;;13.18;11.77;;;25.10;70.90;;;;;;5118440;28;20024;-54
2021/06/21 06:06:06;;;;;;;13.90;12.18;;;25.10;70.90;;;;;;5118244;28;20081;-53
2021/06/21 06:08:32;;;;;;;14.20;12.05;;;25.10;70.90;;;;;;5118518;27;20102;-54
2021/06/21 06:10:57;;;;;;;13.43;11.48;;;25.10;71.00;;;;;;5118549;28;20123;-54
2021/06/21 06:13:23;;;;;;;12.50;10.98;;;25.10;70.90;;;;;;5118619;27;20088;-54
2021/06/21 06:15:49;;;;;;;15.35;11.48;;;25.10;70.90;;;;;;5118783;28;20096;-54
2021/06/21 06:18:16;;;;;;;13.32;11.80;;;25.10;70.90;;;;;;5118866;28;20072;-54
2021/06/21 06:20:42;;;;;;;13.20;11.05;;;25.10;70.90;;;;;;5118695;27;20323;-53
2021/06/21 06:23:08;;;;;;;13.13;11.00;;;25.10;70.80;;;;;;5118811;27;20007;-54
2021/06/21 06:25:36;;;;;;;14.13;12.63;;;25.10;70.80;;;;;;5118556;28;20034;-55
2021/06/21 06:28:02;;;;;;;13.13;10.45;;;25.10;70.80;;;;;;5118659;27;20031;-54
2021/06/21 06:30:28;;;;;;;11.85;10.65;;;25.00;70.80;;;;;;5118578;27;20023;-54
2021/06/21 06:32:54;;;;;;;12.30;11.00;;;25.10;70.70;;;;;;5118856;28;20030;-54
2021/06/21 06:35:19;;;;;;;12.98;11.43;;;25.10;70.80;;;;;;5118317;28;20380;-54
2021/06/21 06:37:46;;;;;;;11.70;10.50;;;25.10;70.80;;;;;;5118813;28;20035;-54
2021/06/21 06:40:13;;;;;;;12.05;10.80;;;25.10;70.90;;;;;;5118764;27;20412;-54
2021/06/21 06:44:09;;;;;;;12.75;10.82;;;25.10;70.50;;;;;;5099425;27;20693;-54
2021/06/21 06:46:35;;;;;;;11.40;10.20;;;25.10;70.90;;;;;;5099354;28;20024;-54
2021/06/21 06:49:01;;;;;;;11.43;10.05;;;25.10;71.10;;;;;;5099288;28;20012;-55
2021/06/21 06:51:35;;;;;;;11.30;10.10;;;25.10;71.10;;;;;;5099281;28;20103;-54
2021/06/21 06:54:06;;;;;;;13.85;11.00;;;25.10;71.70;;;;;;5099037;28;20031;-55
2021/06/21 06:59:39;;;;;;;11.27;10.07;;;25.10;70.70;;;;;;5079268;28;20398;-54
2021/06/21 07:02:10;;;;;;;15.00;10.50;;;25.10;71.30;;;;;;5077667;28;20379;-54
2021/06/21 07:04:37;;;;;;;13.55;10.25;;;25.10;71.70;;;;;;5079014;28;20020;-54
2021/06/21 07:07:04;;;;;;;11.57;10.00;;;25.10;71.20;;;;;;5066061;28;20502;-54
2021/06/21 07:09:30;;;;;;;10.70;9.18;;;25.10;71.20;;;;;;5058679;28;20059;-54
2021/06/21 07:11:57;;;;;;;12.45;10.43;;;25.10;71.30;;;;;;5058633;28;20037;-54
2021/06/21 07:14:24;;;;;;;13.45;10.13;;;25.10;71.30;;;;;;5060056;28;20498;-54
2021/06/21 07:16:50;;;;;;;11.00;9.50;;;25.10;71.30;;;;;;5059910;28;20031;-54
2021/06/21 07:19:17;;;;;;;12.38;10.70;;;25.10;71.30;;;;;;5059810;28;20028;-55
2021/06/21 07:21:43;;;;;;;11.88;9.75;;;25.10;71.10;;;;;;5058834;28;20467;-55
2021/06/21 07:24:09;;;;;;;11.30;10.13;;;25.10;71.10;;;;;;5059619;28;20039;-54
2021/06/21 07:26:37;;;;;;;11.20;10.05;;;25.10;70.80;;;;;;5059727;28;20048;-54
2021/06/21 07:29:04;;;;;;;11.90;10.52;;;25.10;71.10;;;;;;5059633;28;20040;-55
2021/06/21 07:31:30;;;;;;;11.13;10.02;;;25.10;71.00;;;;;;5059580;28;20055;-55
2021/06/21 07:33:55;;;;;;;11.13;9.82;;;25.10;71.10;;;;;;5059493;28;20467;-55
2021/06/21 07:36:21;;;;;;;10.38;9.27;;;25.10;71.20;;;;;;5059086;28;20082;-55
2021/06/21 07:38:47;;;;;;;11.38;10.07;;;25.10;71.50;;;;;;5056482;28;20534;-55
2021/06/21 07:41:13;;;;;;;11.65;9.70;;;25.10;71.20;;;;;;5051430;28;20017;-56
2021/06/21 07:43:39;;;;;;;10.35;9.15;;;25.10;71.30;;;;;;5039865;28;20038;-55
2021/06/21 07:46:05;;;;;;;12.57;9.77;;;25.10;71.10;;;;;;5052126;28;20449;-55
2021/06/21 07:48:33;;;;;;;11.05;9.85;;;25.10;71.20;;;;;;5059395;28;20039;-54
2021/06/21 07:50:59;;;;;;;11.13;10.02;;;25.10;71.10;;;;;;5059374;28;20093;-54
2021/06/21 07:53:24;;;;;;;11.35;9.60;;;25.10;71.10;;;;;;5059146;28;20037;-55
2021/06/21 07:55:50;;;;;;;10.25;9.18;;;25.10;71.10;;;;;;5059075;28;20035;-54
2021/06/21 07:58:16;;;;;;;11.35;9.70;;;25.10;71.00;;;;;;5058391;28;20558;-54
2021/06/21 08:02:13;;;;;;;10.60;9.50;;;25.10;70.70;;;;;;5100847;27;20883;-55
2021/06/21 08:04:38;;;;;;;10.30;9.25;;;25.10;71.10;;;;;;5100690;28;20110;-54
2021/06/21 08:07:05;;;;;;;11.60;9.43;;;25.10;70.90;;;;;;5086630;28;20032;-55
2021/06/21 08:09:30;;;;;;;10.85;9.70;;;25.10;70.90;;;;;;5079928;28;20020;-54
2021/06/21 08:11:56;;;;;;;11.00;9.77;;;25.10;70.90;;;;;;5080254;28;20017;-55
2021/06/21 08:14:21;;;;;;;10.02;9.00;;;25.10;70.90;;;;;;5079120;28;20550;-55
2021/06/21 08:16:47;;;;;;;10.98;9.73;;;25.10;70.90;;;;;;5079192;28;20060;-55
2021/06/21 08:19:13;;;;;;;10.88;9.77;;;25.10;71.50;;;;;;5079285;28;20111;-54
2021/06/21 08:21:38;;;;;;;10.30;9.20;;;25.10;71.00;;;;;;5079513;28;20111;-54
2021/06/21 08:24:09;;;;;;;10.77;9.63;;;25.10;71.00;;;;;;5079164;28;20020;-54
2021/06/21 08:26:35;;;;;;;10.68;9.52;;;25.10;71.00;;;;;;5078817;28;20688;-54
2021/06/21 08:29:01;;;;;;;11.63;9.73;;;25.10;71.00;;;;;;5079125;28;20455;-54
2021/06/21 08:31:26;;;;;;;11.05;9.18;;;25.10;71.20;;;;;;5078884;28;20418;-54
2021/06/21 08:33:53;;;;;;;10.77;9.65;;;25.10;71.00;;;;;;5079157;28;20021;-55
2021/06/21 08:36:19;;;;;;;10.65;8.77;;;25.10;71.10;;;;;;5078759;28;20055;-55
2021/06/21 08:38:44;;;;;;;11.65;9.23;;;25.10;71.10;;;;;;5078685;28;20471;-55
2021/06/21 08:41:11;;;;;;;13.20;9.20;;;25.10;71.10;;;;;;5078812;28;20467;-55
2021/06/21 08:43:38;;;;;;;10.38;9.20;;;25.10;71.10;;;;;;5078941;28;20611;-55
2021/06/21 08:46:03;;;;;;;10.63;8.73;;;25.10;71.20;;;;;;5078203;28;20039;-56
2021/06/21 08:48:30;;;;;;;11.10;9.68;;;25.10;71.10;;;;;;5078752;28;20016;-55
2021/06/21 08:50:58;;;;;;;10.98;9.20;;;25.10;71.10;;;;;;5078384;28;20069;-54
2021/06/21 08:53:24;;;;;;;12.30;9.15;;;25.10;71.70;;;;;;5078624;28;20336;-55
2021/06/21 08:55:50;;;;;;;10.05;8.40;;;25.10;71.10;;;;;;5078592;28;20036;-55
2021/06/21 08:58:17;;;;;;;10.48;9.05;;;25.10;71.10;;;;;;5078582;28;20025;-54
2021/06/21 09:00:42;;;;;;;11.57;9.48;;;25.10;71.20;;;;;;5078372;28;20044;-54
2021/06/21 09:03:08;;;;;;;11.90;9.02;;;25.10;71.20;;;;;;5077912;28;20036;-55
2021/06/21 09:05:35;;;;;;;12.13;9.77;;;25.10;71.20;;;;;;5078001;28;20027;-55
2021/06/21 09:08:04;;;;;;;13.57;8.82;;;25.10;71.20;;;;;;5077852;28;20379;-55
2021/06/21 09:10:31;;;;;;;10.35;8.40;;;25.10;71.10;;;;;;5078328;28;20367;-55
2021/06/21 09:13:15;;;;;;;10.77;8.70;;;25.10;71.20;;;;;;5068491;28;20082;-55
2021/06/21 09:15:43;;;;;;;10.48;8.60;;;25.10;71.20;;;;;;5064953;28;20027;-55
2021/06/21 09:18:34;;;;;;;10.85;7.80;;;25.10;71.20;;;;;;5064244;28;20032;-54
2021/06/21 09:21:30;;;;;;;10.48;8.77;;;25.10;71.20;;;;;;5044129;28;20606;-54
2021/06/21 09:23:59;;;;;;;10.88;8.13;;;25.10;71.30;;;;;;5044054;28;20587;-54
2021/06/21 09:26:30;;;;;;;10.32;8.40;;;25.10;71.30;;;;;;5044027;28;20092;-54
2021/06/21 09:29:01;;;;;;;9.63;7.90;;;25.10;71.20;;;;;;5044161;28;20032;-55
2021/06/21 09:31:27;;;;;;;12.15;8.40;;;25.10;71.30;;;;;;5042362;28;20535;-55
2021/06/21 09:34:11;;;;;;;10.13;8.30;;;25.10;71.30;;;;;;5043819;28;20171;-54
2021/06/21 09:36:36;;;;;;;10.30;8.38;;;25.10;71.20;;;;;;5043628;28;20024;-54
2021/06/21 09:39:19;;;;;;;10.95;7.90;;;25.10;71.30;;;;;;5043643;28;20029;-55
2021/06/21 09:42:08;;;;;;;10.80;7.88;;;25.10;71.30;;;;;;5043362;28;20045;-55
2021/06/21 09:44:46;;;;;;;9.98;8.60;;;25.10;71.20;;;;;;5043522;28;20017;-54
2021/06/21 09:47:12;;;;;;;9.82;8.07;;;25.10;71.30;;;;;;5043518;28;20036;-54
2021/06/21 09:49:38;;;;;;;9.52;7.53;;;25.10;71.30;;;;;;5043604;28;20282;-54
2021/06/21 09:52:04;;;;;;;9.50;8.10;;;25.10;71.30;;;;;;5043459;28;20094;-54
2021/06/21 09:54:34;;;;;;;10.73;8.10;;;25.10;71.30;;;;;;5043416;28;20400;-54
2021/06/21 09:57:12;;;;;;;9.55;7.43;;;25.10;71.30;;;;;;5044286;28;20479;-55
2021/06/21 09:59:47;;;;;;;8.95;7.43;;;25.10;71.30;;;;;;5045392;28;20025;-55
2021/06/21 10:02:22;;;;;;;10.00;8.05;;;25.10;71.30;;;;;;5063299;28;20388;-54
2021/06/21 10:04:48;;;;;;;8.90;7.15;;;25.10;71.40;;;;;;5063315;28;20029;-54
2021/06/21 10:07:37;;;;;;;9.38;7.30;;;25.10;71.40;;;;;;5063168;28;20060;-54
2021/06/21 10:10:07;;;;;;;10.48;8.07;;;25.20;71.40;;;;;;5063379;28;20036;-54
2021/06/21 10:14:53;;;;;;;9.23;7.18;;;25.20;71.00;;;;;;5079300;28;20398;-54
2021/06/21 10:17:19;;;;;;;9.30;7.13;;;25.10;71.40;;;;;;5063864;28;20021;-54
2021/06/21 10:19:45;;;;;;;10.50;7.97;;;25.10;71.30;;;;;;5058804;28;20082;-54
2021/06/21 10:22:11;;;;;;;9.52;6.72;;;25.10;71.30;;;;;;5058807;28;20037;-54
2021/06/21 10:24:37;;;;;;;8.07;7.28;;;25.10;71.40;;;;;;5058734;28;20301;-54
2021/06/21 10:27:05;;;;;;;8.30;7.35;;;25.20;71.40;;;;;;5058621;28;20047;-54
2021/06/21 10:29:33;;;;;;;10.35;8.48;;;25.10;71.40;;;;;;5058588;28;20029;-54
2021/06/21 10:32:01;;;;;;;8.60;7.60;;;25.10;71.40;;;;;;5058398;28;20315;-54
2021/06/21 10:34:26;;;;;;;10.05;7.20;;;25.20;71.40;;;;;;5058358;28;20410;-54
2021/06/21 10:36:55;;;;;;;10.05;7.28;;;25.20;71.50;;;;;;5058076;28;20021;-55
2021/06/21 10:39:23;;;;;;;8.73;7.05;;;25.20;71.50;;;;;;5057952;28;20104;-55
2021/06/21 10:42:04;;;;;;;10.95;7.80;;;25.20;71.40;;;;;;5059089;28;20104;-54
2021/06/21 10:44:47;;;;;;;9.73;6.90;;;25.20;71.40;;;;;;5059169;28;20020;-55
2021/06/21 10:47:29;;;;;;;9.95;7.60;;;25.20;71.40;;;;;;5059585;28;20017;-55
2021/06/21 10:49:59;;;;;;;9.30;7.20;;;25.20;71.40;;;;;;5059812;28;20634;-55
2021/06/21 10:52:37;;;;;;;9.48;7.45;;;25.20;71.50;;;;;;5059453;28;20043;-55
2021/06/21 10:55:22;;;;;;;11.15;7.22;;;25.20;71.40;;;;;;5059398;28;20045;-54
2021/06/21 10:57:56;;;;;;;9.10;6.82;;;25.20;71.40;;;;;;5059373;28;20033;-55
2021/06/21 11:00:34;;;;;;;8.48;6.85;;;25.10;71.50;;;;;;5059283;28;20072;-54
2021/06/21 11:03:24;;;;;;;8.90;7.03;;;25.20;71.50;;;;;;5059378;28;20682;-54
2021/06/21 11:05:52;;;;;;;8.50;6.70;;;25.20;71.60;;;;;;5056642;28;20021;-55
2021/06/21 11:08:24;;;;;;;10.27;6.90;;;25.20;71.50;;;;;;5050658;28;20071;-55
2021/06/21 11:10:58;;;;;;;8.65;6.25;;;25.20;71.80;;;;;;5053040;28;20037;-55
2021/06/21 11:13:35;;;;;;;8.13;6.65;;;25.20;71.70;;;;;;5045764;28;20048;-55
2021/06/21 11:16:23;;;;;;;10.90;6.88;;;25.20;71.70;;;;;;5053725;28;20028;-55
2021/06/21 11:19:13;;;;;;;10.25;6.47;;;25.20;71.70;;;;;;5053314;28;20020;-55
2021/06/21 11:21:53;;;;;;;7.97;6.70;;;25.20;71.70;;;;;;5050802;28;20094;-56
2021/06/21 11:24:40;;;;;;;7.45;6.10;;;25.20;71.90;;;;;;5047029;28;20078;-55
2021/06/21 11:27:11;;;;;;;9.05;6.88;;;25.20;71.90;;;;;;5036381;28;20175;-55
2021/06/21 11:29:42;;;;;;;7.28;5.85;;;25.20;71.90;;;;;;5028387;28;20031;-56
2021/06/21 11:32:08;;;;;;;9.05;6.93;;;25.20;72.00;;;;;;5035670;28;20646;-55
2021/06/21 11:34:48;;;;;;;8.60;6.85;;;25.30;72.00;;;;;;5032781;28;20103;-55
2021/06/21 11:37:38;;;;;;;7.95;5.85;;;25.20;72.00;;;;;;5037793;28;20021;-55
2021/06/21 11:40:15;;;;;;;10.48;6.70;;;25.30;72.20;;;;;;5031938;28;20160;-56
2021/06/21 11:42:43;;;;;;;9.35;7.13;;;25.30;72.30;;;;;;5036763;28;20040;-56
2021/06/21 11:45:09;;;;;;;8.18;7.07;;;25.30;72.80;;;;;;5027719;28;20020;-55
2021/06/21 11:47:36;;;;;;;9.65;6.88;;;25.30;72.90;;;;;;5039674;28;20084;-55
2021/06/21 11:50:12;;;;;;;7.50;6.45;;;25.30;72.70;;;;;;5036365;28;20043;-56
2021/06/21 11:52:38;;;;;;;8.98;6.70;;;25.30;72.80;;;;;;5037737;28;20025;-55
2021/06/21 11:55:18;;;;;;;9.27;7.55;;;25.30;72.90;;;;;;5041872;28;20029;-56
2021/06/21 11:57:43;;;;;;;10.45;7.78;;;25.30;73.40;;;;;;5039333;28;20582;-55
2021/06/21 12:00:10;;;;;;;10.02;7.40;;;25.30;73.00;;;;;;5043268;28;20024;-56
2021/06/21 12:02:36;;;;;;;10.48;7.05;;;25.30;73.00;;;;;;5039962;28;20017;-56
2021/06/21 12:05:15;;;;;;;11.07;7.38;;;25.30;73.00;;;;;;5040650;28;20035;-55
2021/06/21 12:07:43;;;;;;;10.90;7.47;;;25.40;73.10;;;;;;5035737;28;20103;-55
2021/06/21 12:10:15;;;;;;;9.68;7.57;;;25.30;73.10;;;;;;5035552;28;20032;-55
2021/06/21 12:12:44;;;;;;;8.68;7.10;;;25.30;73.10;;;;;;5037388;28;20078;-55
2021/06/21 12:15:13;;;;;;;9.80;7.97;;;25.40;73.20;;;;;;5037920;28;20052;-55
2021/06/21 12:17:40;;;;;;;9.73;7.38;;;25.30;73.10;;;;;;5035040;28;20049;-56
2021/06/21 12:20:18;;;;;;;10.05;7.93;;;25.40;73.10;;;;;;5029590;28;20040;-55
2021/06/21 12:23:03;;;;;;;10.25;7.43;;;25.30;73.10;;;;;;5033392;28;20029;-55
2021/06/21 12:25:48;;;;;;;9.60;7.20;;;25.30;73.10;;;;;;5040585;28;20141;-56
2021/06/21 12:28:19;;;;;;;9.93;7.38;;;25.40;72.90;;;;;;5029641;28;20676;-56
2021/06/21 12:30:47;;;;;;;10.40;7.10;;;25.40;72.80;;;;;;5037247;28;20033;-55
2021/06/21 12:33:32;;;;;;;11.38;7.28;;;25.40;73.10;;;;;;5046313;28;20068;-54
2021/06/21 12:36:06;;;;;;;10.88;7.70;;;25.40;72.90;;;;;;5047026;28;20033;-55
2021/06/21 12:38:32;;;;;;;;;;;25.40;72.90;;;;;;5046192;28;20079;-55
2021/06/21 12:40:58;;;;;;;8.90;6.90;;;25.40;72.90;;;;;;5045111;28;19917;-54
2021/06/21 12:43:24;;;;;;;11.27;6.65;;;25.40;73.00;;;;;;5044329;28;20029;-56
2021/06/21 12:45:50;;;;;;;8.55;7.30;;;25.40;72.90;;;;;;5046119;28;20013;-56
2021/06/21 12:48:16;;;;;;;9.80;7.20;;;25.40;73.00;;;;;;5046632;28;20025;-56
2021/06/21 12:50:43;;;;;;;8.10;6.70;;;25.40;73.00;;;;;;5044423;28;20086;-56
2021/06/21 12:53:09;;;;;;;10.88;7.22;;;25.40;73.00;;;;;;5047787;28;20037;-56
2021/06/21 12:55:35;;;;;;;8.07;6.57;;;25.40;73.00;;;;;;5047521;28;20065;-56
2021/06/21 12:58:04;;;;;;;9.40;7.32;;;25.40;72.80;;;;;;5051711;28;20456;-56
2021/06/21 13:00:42;;;;;;;8.98;6.88;;;25.40;72.80;;;;;;5051849;28;20021;-56
2021/06/21 13:03:12;;;;;;;8.68;6.82;;;25.40;72.90;;;;;;5052167;28;20075;-56
2021/06/21 13:05:46;;;;;;;9.48;7.18;;;25.40;72.90;;;;;;5049346;28;20044;-56
2021/06/21 13:08:13;;;;;;;8.43;6.88;;;25.40;72.80;;;;;;5051325;28;20371;-56
2021/06/21 13:10:40;;;;;;;9.88;7.40;;;25.40;72.70;;;;;;5051994;28;20021;-56
2021/06/21 13:13:06;;;;;;;10.63;6.90;;;25.40;72.80;;;;;;5050202;28;20053;-56
2021/06/21 13:15:41;;;;;;;8.80;6.60;;;25.40;72.70;;;;;;5037766;28;20025;-56
2021/06/21 13:18:06;;;;;;;9.63;7.00;;;25.40;72.70;;;;;;5052297;28;20430;-56
2021/06/21 13:20:32;;;;;;;8.07;6.15;;;25.40;72.60;;;;;;5052839;28;20031;-57
2021/06/21 13:23:00;;;;;;;8.88;6.88;;;25.40;72.60;;;;;;5051901;28;20457;-56
2021/06/21 13:25:32;;;;;;;8.55;6.53;;;25.40;72.70;;;;;;5052130;28;20456;-56
2021/06/21 13:27:57;;;;;;;10.48;7.63;;;25.50;72.80;;;;;;5051845;28;20029;-56
2021/06/21 13:30:38;;;;;;;9.25;6.53;;;25.50;72.70;;;;;;5052034;28;20028;-56
2021/06/21 13:33:06;;;;;;;9.38;7.00;;;25.50;72.50;;;;;;5049385;28;20036;-56
2021/06/21 13:35:34;;;;;;;9.23;6.68;;;25.50;72.50;;;;;;5051998;28;20025;-56
2021/06/21 13:37:59;;;;;;;9.63;6.72;;;25.50;72.40;;;;;;5051860;28;20471;-56
2021/06/21 13:40:32;;;;;;;8.93;6.72;;;25.50;72.40;;;;;;5052047;28;20025;-56
2021/06/21 13:43:01;;;;;;;11.05;7.07;;;25.50;72.40;;;;;;5051817;28;20013;-56
2021/06/21 13:45:30;;;;;;;11.23;6.72;;;25.50;72.40;;;;;;5051826;28;20671;-56
2021/06/21 13:48:14;;;;;;;9.52;6.93;;;25.50;72.30;;;;;;5051625;28;20017;-56
2021/06/21 13:50:44;;;;;;;12.75;6.97;;;25.50;72.40;;;;;;5050944;28;20090;-56
2021/06/21 13:53:37;;;;;;;10.25;6.63;;;25.50;72.40;;;;;;5050823;28;20515;-56
2021/06/21 13:56:04;;;;;;;7.72;5.85;;;25.50;72.30;;;;;;5047569;28;20052;-57
2021/06/21 13:58:40;;;;;;;10.65;6.97;;;25.50;72.30;;;;;;5050803;28;20066;-56
2021/06/21 14:01:16;;;;;;;9.75;6.55;;;25.50;72.30;;;;;;5049067;28;20035;-56
2021/06/21 14:03:50;;;;;;;8.00;6.13;;;25.50;72.30;;;;;;5048484;28;20029;-56
2021/06/21 14:06:20;;;;;;;10.18;6.75;;;25.50;72.30;;;;;;5050594;28;20016;-56
2021/06/21 14:08:46;;;;;;;9.02;6.60;;;25.50;72.30;;;;;;5050350;28;20435;-56
2021/06/21 14:11:14;;;;;;;8.80;6.88;;;25.50;72.20;;;;;;5050731;28;20025;-56
2021/06/21 14:13:41;;;;;;;7.90;5.97;;;25.50;72.20;;;;;;5047892;28;20033;-57
2021/06/21 14:16:20;;;;;;;8.02;6.38;;;25.50;72.00;;;;;;5051865;28;20029;-56
2021/06/21 14:18:46;;;;;;;9.45;6.18;;;25.50;72.10;;;;;;5051842;28;20009;-56
2021/06/21 14:21:13;;;;;;;8.98;6.47;;;25.40;72.00;;;;;;5050989;28;20081;-56
2021/06/21 14:23:47;;;;;;;8.32;6.88;;;25.50;72.00;;;;;;5050139;28;21158;-56
2021/06/21 14:26:14;;;;;;;10.82;6.55;;;25.50;72.00;;;;;;5050484;28;20085;-56
2021/06/21 14:28:39;;;;;;;9.05;6.03;;;25.50;71.90;;;;;;5047751;28;20028;-56
2021/06/21 14:31:07;;;;;;;8.13;6.10;;;25.50;71.90;;;;;;5050543;28;20017;-56
2021/06/21 14:33:33;;;;;;;9.43;6.43;;;25.50;71.90;;;;;;5049966;28;20048;-56
2021/06/21 14:35:59;;;;;;;8.63;6.03;;;25.50;72.00;;;;;;5040451;28;20384;-56
2021/06/21 14:38:24;;;;;;;9.30;6.10;;;25.50;72.00;;;;;;5039527;28;20037;-56
2021/06/21 14:40:50;;;;;;;7.85;5.75;;;25.50;72.00;;;;;;5041306;28;20036;-56
2021/06/21 14:43:18;;;;;;;9.90;6.07;;;25.50;72.00;;;;;;5042718;28;20028;-56
2021/06/21 14:45:45;;;;;;;12.57;7.18;;;25.50;72.00;;;;;;5044229;28;20036;-56
2021/06/21 14:48:11;;;;;;;9.73;6.20;;;25.50;72.00;;;;;;5042483;28;20043;-56
2021/06/21 14:50:37;;;;;;;8.57;6.03;;;25.50;72.50;;;;;;5034048;28;20109;-56
2021/06/21 14:53:05;;;;;;;8.32;5.75;;;25.50;71.90;;;;;;5040978;28;20429;-56
2021/06/21 14:55:31;;;;;;;9.15;5.60;;;25.50;71.90;;;;;;5039171;28;20465;-56
2021/06/21 14:57:57;;;;;;;8.27;5.82;;;25.50;71.90;;;;;;5034826;28;20029;-56
2021/06/21 15:00:26;;;;;;;8.10;6.32;;;25.50;71.90;;;;;;5044728;28;20025;-56
2021/06/21 15:02:52;;;;;;;7.53;5.18;;;25.50;71.90;;;;;;5037568;28;20034;-56
2021/06/21 15:05:19;;;;;;;7.13;5.43;;;25.50;71.80;;;;;;5047120;28;20031;-56
2021/06/21 15:07:45;;;;;;;9.88;6.50;;;25.50;71.90;;;;;;5043501;28;20465;-56
2021/06/21 15:10:17;;;;;;;12.82;6.57;;;25.50;71.80;;;;;;5049555;28;20033;-56
2021/06/21 15:12:43;;;;;;;10.90;6.47;;;25.50;71.70;;;;;;5047029;28;20411;-56
2021/06/21 15:15:14;;;;;;;9.82;6.15;;;25.50;71.70;;;;;;5040127;28;20040;-57
2021/06/21 15:17:41;;;;;;;9.88;6.03;;;25.50;71.60;;;;;;5044734;28;20033;-57
2021/06/21 15:20:08;;;;;;;8.60;5.95;;;25.50;71.70;;;;;;5042383;28;20044;-57
2021/06/21 15:22:34;;;;;;;10.40;6.22;;;25.50;71.80;;;;;;5037887;28;20021;-57
2021/06/21 15:25:00;;;;;;;12.07;6.38;;;25.50;71.80;;;;;;5042054;28;20025;-57
2021/06/21 15:27:26;;;;;;;15.57;6.65;;;25.50;71.70;;;;;;5042612;28;20457;-57
2021/06/21 15:29:52;;;;;;;12.20;6.38;;;25.60;71.70;;;;;;5043673;28;20025;-57
2021/06/21 15:32:18;;;;;;;10.65;6.40;;;25.50;71.70;;;;;;5044848;28;20102;-57
2021/06/21 15:34:44;;;;;;;11.60;6.00;;;25.60;71.70;;;;;;5043623;28;20475;-57
2021/06/21 15:37:15;;;;;;;8.77;5.90;;;25.50;71.80;;;;;;5057235;28;20373;-57
2021/06/21 15:39:41;;;;;;;8.02;5.63;;;25.60;71.70;;;;;;5038974;28;20033;-57
2021/06/21 15:42:11;;;;;;;9.68;6.30;;;25.50;71.50;;;;;;5033931;28;20132;-57
2021/06/21 15:45:28;;;;;;;10.82;6.53;;;25.50;70.90;;;;;;5127270;27;20902;-57
2021/06/21 15:47:55;;;;;;;8.88;6.07;;;25.60;71.50;;;;;;5097103;28;20020;-57
2021/06/21 15:50:22;;;;;;;9.07;5.80;;;25.60;71.50;;;;;;5104556;28;20107;-57
2021/06/21 15:52:50;;;;;;;12.25;7.25;;;25.60;71.40;;;;;;5104773;28;20107;-57
2021/06/21 15:55:18;;;;;;;9.85;5.88;;;25.60;71.30;;;;;;5104391;28;20024;-57
2021/06/21 15:57:47;;;;;;;11.05;7.10;;;25.50;71.20;;;;;;5102025;28;20046;-57
2021/06/21 16:00:16;;;;;;;9.13;6.20;;;25.60;71.30;;;;;;5101225;28;20490;-57